sensor_id;sensor_type;location;lat;lon;timestamp;temperature;humidity
11963;DHT22;62678;52.130;5.584;2022-12-24T00:01:35;10.60;99.90
11963;DHT22;62678;52.130;5.584;2022-12-24T00:04:02;10.70;99.90
11963;DHT22;62678;52.130;5.584;2022-12-24T00:06:30;10.60;99.90
11963;DHT22;62678;52.130;5.584;2022-12-24T00:08:56;10.60;99.90
11963;DHT22;62678;52.130;5.584;2022-12-24T00:11:24;10.60;99.90
11963;DHT22;62678;52.130;5.584;2022-12-24T00:13:51;10.60;99.90
11963;DHT22;62678;52.130;5.584;2022-12-24T00:16:20;10.60;99.90
11963;DHT22;62678;52.130;5.584;2022-12-24T00:18:47;10.70;99.90
11963;DHT22;62678;52.130;5.584;2022-12-24T00:21:14;10.60;99.90
11963;DHT22;62678;52.130;5.584;2022-12-24T00:23:41;10.60;99.90
11963;DHT22;62678;52.130;5.584;2022-12-24T00:26:09;10.60;99.90
11963;DHT22;62678;52.130;5.584;2022-12-24T00:28:36;10.60;99.90
11963;DHT22;62678;52.130;5.584;2022-12-24T00:31:07;10.60;99.90
11963;DHT22;62678;52.130;5.584;2022-12-24T00:33:36;10.50;99.90
11963;DHT22;62678;52.130;5.584;2022-12-24T00:36:04;10.50;99.90
11963;DHT22;62678;52.130;5.584;2022-12-24T00:38:31;10.60;99.90
11963;DHT22;62678;52.130;5.584;2022-12-24T00:40:59;10.60;99.90
11963;DHT22;62678;52.130;5.584;2022-12-24T00:43:26;10.60;99.90
11963;DHT22;62678;52.130;5.584;2022-12-24T00:45:54;10.70;99.90
11963;DHT22;62678;52.130;5.584;2022-12-24T00:48:22;10.60;99.90
11963;DHT22;62678;52.130;5.584;2022-12-24T00:50:51;10.60;99.90
11963;DHT22;62678;52.130;5.584;2022-12-24T00:53:18;10.60;99.90
11963;DHT22;62678;52.130;5.584;2022-12-24T00:55:45;10.60;99.90
11963;DHT22;62678;52.130;5.584;2022-12-24T00:58:12;10.60;99.90
11963;DHT22;62678;52.130;5.584;2022-12-24T01:00:40;10.50;99.90
11963;DHT22;62678;52.130;5.584;2022-12-24T01:03:07;10.50;99.90
11963;DHT22;62678;52.130;5.584;2022-12-24T01:05:34;10.50;99.90
11963;DHT22;62678;52.130;5.584;2022-12-24T01:08:01;10.50;99.90
11963;DHT22;62678;52.130;5.584;2022-12-24T01:10:29;10.40;99.90
11963;DHT22;62678;52.130;5.584;2022-12-24T01:12:56;10.40;99.90
11963;DHT22;62678;52.130;5.584;2022-12-24T01:15:23;10.40;99.90
11963;DHT22;62678;52.130;5.584;2022-12-24T01:17:51;10.40;99.90
11963;DHT22;62678;52.130;5.584;2022-12-24T01:20:18;10.40;99.90
11963;DHT22;62678;52.130;5.584;2022-12-24T01:22:46;10.30;99.90
11963;DHT22;62678;52.130;5.584;2022-12-24T01:25:14;10.30;99.90
11963;DHT22;62678;52.130;5.584;2022-12-24T01:27:42;10.20;99.90
11963;DHT22;62678;52.130;5.584;2022-12-24T01:30:12;10.20;99.90
11963;DHT22;62678;52.130;5.584;2022-12-24T01:32:40;10.10;99.90
11963;DHT22;62678;52.130;5.584;2022-12-24T01:35:08;10.10;99.90
11963;DHT22;62678;52.130;5.584;2022-12-24T01:37:37;10.00;99.90
11963;DHT22;62678;52.130;5.584;2022-12-24T01:40:05;10.10;99.90
11963;DHT22;62678;52.130;5.584;2022-12-24T01:42:52;10.00;99.90
11963;DHT22;62678;52.130;5.584;2022-12-24T01:45:45;9.90;99.90
11963;DHT22;62678;52.130;5.584;2022-12-24T01:48:17;9.90;99.90
11963;DHT22;62678;52.130;5.584;2022-12-24T01:50:46;9.80;99.90
11963;DHT22;62678;52.130;5.584;2022-12-24T01:53:14;9.80;99.90
11963;DHT22;62678;52.130;5.584;2022-12-24T01:55:42;9.70;99.90
11963;DHT22;62678;52.130;5.584;2022-12-24T01:58:13;9.70;99.90
11963;DHT22;62678;52.130;5.584;2022-12-24T02:00:42;9.60;99.90
11963;DHT22;62678;52.130;5.584;2022-12-24T02:03:10;9.60;99.90
11963;DHT22;62678;52.130;5.584;2022-12-24T02:05:43;9.50;99.90
11963;DHT22;62678;52.130;5.584;2022-12-24T02:08:12;9.50;99.90
11963;DHT22;62678;52.130;5.584;2022-12-24T02:10:40;9.50;99.90
11963;DHT22;62678;52.130;5.584;2022-12-24T02:13:07;9.50;99.90
11963;DHT22;62678;52.130;5.584;2022-12-24T02:15:46;9.50;99.90
11963;DHT22;62678;52.130;5.584;2022-12-24T02:18:20;9.40;99.90
11963;DHT22;62678;52.130;5.584;2022-12-24T02:21:09;9.40;99.90
11963;DHT22;62678;52.130;5.584;2022-12-24T02:26:52;9.40;99.90
11963;DHT22;62678;52.130;5.584;2022-12-24T02:32:34;9.30;99.90
11963;DHT22;62678;52.130;5.584;2022-12-24T02:35:09;9.20;99.90
11963;DHT22;62678;52.130;5.584;2022-12-24T02:37:41;9.20;99.90
11963;DHT22;62678;52.130;5.584;2022-12-24T02:40:14;9.20;99.90
11963;DHT22;62678;52.130;5.584;2022-12-24T02:42:49;9.20;99.90
11963;DHT22;62678;52.130;5.584;2022-12-24T02:45:21;9.20;99.90
11963;DHT22;62678;52.130;5.584;2022-12-24T02:47:54;9.20;99.90
11963;DHT22;62678;52.130;5.584;2022-12-24T02:50:22;9.20;99.90
11963;DHT22;62678;52.130;5.584;2022-12-24T02:52:50;9.20;99.90
11963;DHT22;62678;52.130;5.584;2022-12-24T02:55:20;9.20;99.90
11963;DHT22;62678;52.130;5.584;2022-12-24T02:58:05;9.10;99.90
11963;DHT22;62678;52.130;5.584;2022-12-24T03:00:47;9.10;99.90
11963;DHT22;62678;52.130;5.584;2022-12-24T03:03:31;9.10;99.90
11963;DHT22;62678;52.130;5.584;2022-12-24T03:06:07;9.10;99.90
11963;DHT22;62678;52.130;5.584;2022-12-24T03:08:42;9.10;99.90
11963;DHT22;62678;52.130;5.584;2022-12-24T03:11:12;9.10;99.90
11963;DHT22;62678;52.130;5.584;2022-12-24T03:13:40;9.00;99.90
11963;DHT22;62678;52.130;5.584;2022-12-24T03:16:10;9.00;99.90
11963;DHT22;62678;52.130;5.584;2022-12-24T03:18:42;9.00;99.90
11963;DHT22;62678;52.130;5.584;2022-12-24T03:21:14;8.90;99.90
11963;DHT22;62678;52.130;5.584;2022-12-24T03:23:42;8.90;99.90
11963;DHT22;62678;52.130;5.584;2022-12-24T03:26:11;8.90;99.90
11963;DHT22;62678;52.130;5.584;2022-12-24T03:28:40;8.90;99.90
11963;DHT22;62678;52.130;5.584;2022-12-24T03:31:08;8.90;99.90
11963;DHT22;62678;52.130;5.584;2022-12-24T03:33:36;9.00;99.90
11963;DHT22;62678;52.130;5.584;2022-12-24T03:36:07;9.00;99.90
11963;DHT22;62678;52.130;5.584;2022-12-24T03:38:34;9.10;99.90
11963;DHT22;62678;52.130;5.584;2022-12-24T03:41:02;9.20;99.90
11963;DHT22;62678;52.130;5.584;2022-12-24T03:43:29;9.20;99.90
11963;DHT22;62678;52.130;5.584;2022-12-24T03:45:56;9.20;99.90
11963;DHT22;62678;52.130;5.584;2022-12-24T03:48:23;9.20;99.90
11963;DHT22;62678;52.130;5.584;2022-12-24T03:50:51;9.30;99.90
11963;DHT22;62678;52.130;5.584;2022-12-24T03:53:19;9.30;99.90
11963;DHT22;62678;52.130;5.584;2022-12-24T03:55:47;9.30;99.90
11963;DHT22;62678;52.130;5.584;2022-12-24T03:58:14;9.40;99.90
11963;DHT22;62678;52.130;5.584;2022-12-24T04:00:41;9.50;99.90
11963;DHT22;62678;52.130;5.584;2022-12-24T04:03:08;9.50;99.90
11963;DHT22;62678;52.130;5.584;2022-12-24T04:05:35;9.60;99.90
11963;DHT22;62678;52.130;5.584;2022-12-24T04:08:02;9.70;99.90
11963;DHT22;62678;52.130;5.584;2022-12-24T04:10:31;9.70;99.90
11963;DHT22;62678;52.130;5.584;2022-12-24T04:12:58;9.70;99.90
11963;DHT22;62678;52.130;5.584;2022-12-24T04:15:25;9.80;99.90
11963;DHT22;62678;52.130;5.584;2022-12-24T04:17:52;9.90;99.90
11963;DHT22;62678;52.130;5.584;2022-12-24T04:20:19;9.80;99.90
11963;DHT22;62678;52.130;5.584;2022-12-24T04:22:46;9.80;99.90
11963;DHT22;62678;52.130;5.584;2022-12-24T04:25:13;9.90;99.90
11963;DHT22;62678;52.130;5.584;2022-12-24T04:27:42;9.90;99.90
11963;DHT22;62678;52.130;5.584;2022-12-24T04:30:09;9.90;99.90
11963;DHT22;62678;52.130;5.584;2022-12-24T04:32:36;10.00;99.90
11963;DHT22;62678;52.130;5.584;2022-12-24T04:35:04;9.90;99.90
11963;DHT22;62678;52.130;5.584;2022-12-24T04:37:32;9.90;99.90
11963;DHT22;62678;52.130;5.584;2022-12-24T04:40:00;10.00;99.90
11963;DHT22;62678;52.130;5.584;2022-12-24T04:42:27;9.90;99.90
11963;DHT22;62678;52.130;5.584;2022-12-24T04:44:55;10.00;99.90
11963;DHT22;62678;52.130;5.584;2022-12-24T04:47:23;10.00;99.90
11963;DHT22;62678;52.130;5.584;2022-12-24T04:49:52;10.10;99.90
11963;DHT22;62678;52.130;5.584;2022-12-24T04:52:20;10.10;99.90
11963;DHT22;62678;52.130;5.584;2022-12-24T04:54:50;10.10;99.90
11963;DHT22;62678;52.130;5.584;2022-12-24T04:57:20;10.10;99.90
11963;DHT22;62678;52.130;5.584;2022-12-24T04:59:49;10.10;99.90
11963;DHT22;62678;52.130;5.584;2022-12-24T05:02:18;10.20;99.90
11963;DHT22;62678;52.130;5.584;2022-12-24T05:04:46;10.20;99.90
11963;DHT22;62678;52.130;5.584;2022-12-24T05:07:13;10.10;99.90
11963;DHT22;62678;52.130;5.584;2022-12-24T05:09:40;10.10;99.90
11963;DHT22;62678;52.130;5.584;2022-12-24T05:12:08;10.20;99.90
11963;DHT22;62678;52.130;5.584;2022-12-24T05:14:35;10.20;99.90
11963;DHT22;62678;52.130;5.584;2022-12-24T05:17:02;10.20;99.90
11963;DHT22;62678;52.130;5.584;2022-12-24T05:19:31;10.20;99.90
11963;DHT22;62678;52.130;5.584;2022-12-24T05:21:58;10.20;99.90
11963;DHT22;62678;52.130;5.584;2022-12-24T05:24:39;10.20;99.90
11963;DHT22;62678;52.130;5.584;2022-12-24T05:27:23;10.30;99.90
11963;DHT22;62678;52.130;5.584;2022-12-24T05:29:51;10.30;99.90
11963;DHT22;62678;52.130;5.584;2022-12-24T05:32:18;10.40;99.90
11963;DHT22;62678;52.130;5.584;2022-12-24T05:34:46;10.30;99.90
11963;DHT22;62678;52.130;5.584;2022-12-24T05:37:14;10.40;99.90
11963;DHT22;62678;52.130;5.584;2022-12-24T05:39:41;10.40;99.90
11963;DHT22;62678;52.130;5.584;2022-12-24T05:42:08;10.40;99.90
11963;DHT22;62678;52.130;5.584;2022-12-24T05:44:35;10.40;99.90
11963;DHT22;62678;52.130;5.584;2022-12-24T05:47:03;10.40;99.90
11963;DHT22;62678;52.130;5.584;2022-12-24T05:49:30;10.40;99.90
11963;DHT22;62678;52.130;5.584;2022-12-24T05:51:59;10.40;99.90
11963;DHT22;62678;52.130;5.584;2022-12-24T05:54:27;10.40;99.90
11963;DHT22;62678;52.130;5.584;2022-12-24T05:56:54;10.40;99.90
11963;DHT22;62678;52.130;5.584;2022-12-24T05:59:21;10.40;99.90
11963;DHT22;62678;52.130;5.584;2022-12-24T06:01:49;10.50;99.90
11963;DHT22;62678;52.130;5.584;2022-12-24T06:04:16;10.50;99.90
11963;DHT22;62678;52.130;5.584;2022-12-24T06:06:43;10.50;99.90
11963;DHT22;62678;52.130;5.584;2022-12-24T06:09:11;10.50;99.90
11963;DHT22;62678;52.130;5.584;2022-12-24T06:11:39;10.60;99.90
11963;DHT22;62678;52.130;5.584;2022-12-24T06:14:06;10.60;99.90
11963;DHT22;62678;52.130;5.584;2022-12-24T06:16:33;10.60;99.90
11963;DHT22;62678;52.130;5.584;2022-12-24T06:19:01;10.60;99.90
11963;DHT22;62678;52.130;5.584;2022-12-24T06:21:28;10.60;99.90
11963;DHT22;62678;52.130;5.584;2022-12-24T06:23:55;10.50;99.90
11963;DHT22;62678;52.130;5.584;2022-12-24T06:26:23;10.60;99.90
11963;DHT22;62678;52.130;5.584;2022-12-24T06:28:51;10.60;99.90
11963;DHT22;62678;52.130;5.584;2022-12-24T06:31:20;10.50;99.90
11963;DHT22;62678;52.130;5.584;2022-12-24T06:33:47;10.60;99.90
11963;DHT22;62678;52.130;5.584;2022-12-24T06:36:18;10.50;99.90
11963;DHT22;62678;52.130;5.584;2022-12-24T06:38:47;10.60;99.90
11963;DHT22;62678;52.130;5.584;2022-12-24T06:41:15;10.60;99.90
11963;DHT22;62678;52.130;5.584;2022-12-24T06:43:45;10.60;99.90
11963;DHT22;62678;52.130;5.584;2022-12-24T06:46:12;10.60;99.90
11963;DHT22;62678;52.130;5.584;2022-12-24T06:48:40;10.60;99.90
11963;DHT22;62678;52.130;5.584;2022-12-24T06:51:07;10.60;99.90
11963;DHT22;62678;52.130;5.584;2022-12-24T06:53:35;10.70;99.90
11963;DHT22;62678;52.130;5.584;2022-12-24T06:56:02;10.60;99.90
11963;DHT22;62678;52.130;5.584;2022-12-24T06:58:29;10.70;99.90
11963;DHT22;62678;52.130;5.584;2022-12-24T07:01:00;10.70;99.90
11963;DHT22;62678;52.130;5.584;2022-12-24T07:03:27;10.70;99.90
11963;DHT22;62678;52.130;5.584;2022-12-24T07:05:54;10.70;99.90
11963;DHT22;62678;52.130;5.584;2022-12-24T07:08:21;10.70;99.90
11963;DHT22;62678;52.130;5.584;2022-12-24T07:10:49;10.70;99.90
11963;DHT22;62678;52.130;5.584;2022-12-24T07:13:16;10.70;99.90
11963;DHT22;62678;52.130;5.584;2022-12-24T07:15:43;10.70;99.90
11963;DHT22;62678;52.130;5.584;2022-12-24T07:18:12;10.60;99.90
11963;DHT22;62678;52.130;5.584;2022-12-24T07:20:41;10.60;99.90
11963;DHT22;62678;52.130;5.584;2022-12-24T07:23:09;10.60;99.90
11963;DHT22;62678;52.130;5.584;2022-12-24T07:25:36;10.60;99.90
11963;DHT22;62678;52.130;5.584;2022-12-24T07:28:03;10.60;99.90
11963;DHT22;62678;52.130;5.584;2022-12-24T07:30:30;10.60;99.90
11963;DHT22;62678;52.130;5.584;2022-12-24T07:32:57;10.60;99.90
11963;DHT22;62678;52.130;5.584;2022-12-24T07:35:26;10.60;99.90
11963;DHT22;62678;52.130;5.584;2022-12-24T07:37:53;10.50;99.90
11963;DHT22;62678;52.130;5.584;2022-12-24T07:40:20;10.50;99.90
11963;DHT22;62678;52.130;5.584;2022-12-24T07:42:47;10.50;99.90
11963;DHT22;62678;52.130;5.584;2022-12-24T07:45:13;10.50;99.90
11963;DHT22;62678;52.130;5.584;2022-12-24T07:47:41;10.60;99.90
11963;DHT22;62678;52.130;5.584;2022-12-24T07:50:08;10.50;99.90
11963;DHT22;62678;52.130;5.584;2022-12-24T07:52:37;10.50;99.90
11963;DHT22;62678;52.130;5.584;2022-12-24T07:55:05;10.50;99.90
11963;DHT22;62678;52.130;5.584;2022-12-24T07:57:32;10.50;99.90
11963;DHT22;62678;52.130;5.584;2022-12-24T07:59:59;10.50;99.90
11963;DHT22;62678;52.130;5.584;2022-12-24T08:02:26;10.60;99.90
11963;DHT22;62678;52.130;5.584;2022-12-24T08:04:53;10.60;99.90
11963;DHT22;62678;52.130;5.584;2022-12-24T08:07:20;10.50;99.90
11963;DHT22;62678;52.130;5.584;2022-12-24T08:09:48;10.60;99.90
11963;DHT22;62678;52.130;5.584;2022-12-24T08:12:16;10.50;99.90
11963;DHT22;62678;52.130;5.584;2022-12-24T08:14:43;10.60;99.90
11963;DHT22;62678;52.130;5.584;2022-12-24T08:17:10;10.50;99.90
11963;DHT22;62678;52.130;5.584;2022-12-24T08:19:37;10.50;99.90
11963;DHT22;62678;52.130;5.584;2022-12-24T08:22:04;10.60;99.90
11963;DHT22;62678;52.130;5.584;2022-12-24T08:24:31;10.50;99.90
11963;DHT22;62678;52.130;5.584;2022-12-24T08:27:00;10.60;99.90
11963;DHT22;62678;52.130;5.584;2022-12-24T08:29:27;10.60;99.90
11963;DHT22;62678;52.130;5.584;2022-12-24T08:31:54;10.60;99.90
11963;DHT22;62678;52.130;5.584;2022-12-24T08:34:21;10.60;99.90
11963;DHT22;62678;52.130;5.584;2022-12-24T08:36:48;10.60;99.90
11963;DHT22;62678;52.130;5.584;2022-12-24T08:39:16;10.70;99.90
11963;DHT22;62678;52.130;5.584;2022-12-24T08:41:43;10.70;99.90
11963;DHT22;62678;52.130;5.584;2022-12-24T08:44:11;10.70;99.90
11963;DHT22;62678;52.130;5.584;2022-12-24T08:46:38;10.70;99.90
11963;DHT22;62678;52.130;5.584;2022-12-24T08:49:05;10.70;99.90
11963;DHT22;62678;52.130;5.584;2022-12-24T08:51:32;10.70;99.90
11963;DHT22;62678;52.130;5.584;2022-12-24T08:53:59;10.70;99.90
11963;DHT22;62678;52.130;5.584;2022-12-24T08:56:26;10.70;99.90
11963;DHT22;62678;52.130;5.584;2022-12-24T08:58:54;10.80;99.90
11963;DHT22;62678;52.130;5.584;2022-12-24T09:01:22;10.90;99.90
11963;DHT22;62678;52.130;5.584;2022-12-24T09:03:49;10.80;99.90
11963;DHT22;62678;52.130;5.584;2022-12-24T09:06:16;10.90;99.90
11963;DHT22;62678;52.130;5.584;2022-12-24T09:08:44;11.00;99.90
11963;DHT22;62678;52.130;5.584;2022-12-24T09:11:12;11.00;99.90
11963;DHT22;62678;52.130;5.584;2022-12-24T09:13:41;11.00;99.90
11963;DHT22;62678;52.130;5.584;2022-12-24T09:16:10;11.00;99.90
11963;DHT22;62678;52.130;5.584;2022-12-24T09:18:38;11.00;99.90
11963;DHT22;62678;52.130;5.584;2022-12-24T09:21:07;11.00;99.90
11963;DHT22;62678;52.130;5.584;2022-12-24T09:23:37;11.00;99.90
11963;DHT22;62678;52.130;5.584;2022-12-24T09:26:05;11.00;99.90
11963;DHT22;62678;52.130;5.584;2022-12-24T09:28:32;10.90;99.90
11963;DHT22;62678;52.130;5.584;2022-12-24T09:31:01;11.00;99.90
11963;DHT22;62678;52.130;5.584;2022-12-24T09:33:30;11.00;99.90
11963;DHT22;62678;52.130;5.584;2022-12-24T09:35:59;11.00;99.90
11963;DHT22;62678;52.130;5.584;2022-12-24T09:38:27;11.00;99.90
11963;DHT22;62678;52.130;5.584;2022-12-24T09:40:55;11.00;99.90
11963;DHT22;62678;52.130;5.584;2022-12-24T09:43:24;11.10;99.90
11963;DHT22;62678;52.130;5.584;2022-12-24T09:46:02;11.10;99.90
11963;DHT22;62678;52.130;5.584;2022-12-24T09:48:32;11.20;99.90
11963;DHT22;62678;52.130;5.584;2022-12-24T09:51:04;11.20;99.90
11963;DHT22;62678;52.130;5.584;2022-12-24T09:53:37;11.10;99.90
11963;DHT22;62678;52.130;5.584;2022-12-24T09:56:10;11.10;99.90
11963;DHT22;62678;52.130;5.584;2022-12-24T09:58:40;11.10;99.90
11963;DHT22;62678;52.130;5.584;2022-12-24T10:01:11;11.20;99.90
11963;DHT22;62678;52.130;5.584;2022-12-24T10:03:39;11.10;99.90
11963;DHT22;62678;52.130;5.584;2022-12-24T10:06:11;11.10;99.90
11963;DHT22;62678;52.130;5.584;2022-12-24T10:08:50;11.10;99.90
11963;DHT22;62678;52.130;5.584;2022-12-24T10:11:25;11.20;99.90
11963;DHT22;62678;52.130;5.584;2022-12-24T10:14:02;11.00;99.90
11963;DHT22;62678;52.130;5.584;2022-12-24T10:16:36;11.00;99.90
11963;DHT22;62678;52.130;5.584;2022-12-24T10:19:13;11.10;99.90
11963;DHT22;62678;52.130;5.584;2022-12-24T10:21:51;11.00;99.90
11963;DHT22;62678;52.130;5.584;2022-12-24T10:24:23;11.00;99.90
11963;DHT22;62678;52.130;5.584;2022-12-24T10:26:55;11.10;99.90
11963;DHT22;62678;52.130;5.584;2022-12-24T10:29:25;11.10;99.90
11963;DHT22;62678;52.130;5.584;2022-12-24T10:31:57;11.10;99.90
11963;DHT22;62678;52.130;5.584;2022-12-24T10:34:32;11.20;99.90
11963;DHT22;62678;52.130;5.584;2022-12-24T10:37:01;11.30;99.90
11963;DHT22;62678;52.130;5.584;2022-12-24T10:39:29;11.30;99.90
11963;DHT22;62678;52.130;5.584;2022-12-24T10:41:58;11.30;99.90
11963;DHT22;62678;52.130;5.584;2022-12-24T10:44:27;11.20;99.90
11963;DHT22;62678;52.130;5.584;2022-12-24T10:46:55;11.20;99.90
11963;DHT22;62678;52.130;5.584;2022-12-24T10:49:30;11.20;99.90
11963;DHT22;62678;52.130;5.584;2022-12-24T10:52:03;11.20;99.90
11963;DHT22;62678;52.130;5.584;2022-12-24T10:54:31;11.20;99.90
11963;DHT22;62678;52.130;5.584;2022-12-24T10:57:05;11.40;99.90
11963;DHT22;62678;52.130;5.584;2022-12-24T10:59:39;11.60;99.90
11963;DHT22;62678;52.130;5.584;2022-12-24T11:02:26;11.50;99.90
11963;DHT22;62678;52.130;5.584;2022-12-24T11:04:53;11.40;99.90
11963;DHT22;62678;52.130;5.584;2022-12-24T11:07:23;11.40;99.90
11963;DHT22;62678;52.130;5.584;2022-12-24T11:09:55;11.50;99.90
11963;DHT22;62678;52.130;5.584;2022-12-24T11:12:25;11.60;99.90
11963;DHT22;62678;52.130;5.584;2022-12-24T11:15:00;11.60;99.90
11963;DHT22;62678;52.130;5.584;2022-12-24T11:17:28;11.60;99.90
11963;DHT22;62678;52.130;5.584;2022-12-24T11:19:55;11.40;99.90
11963;DHT22;62678;52.130;5.584;2022-12-24T11:22:26;11.40;99.90
11963;DHT22;62678;52.130;5.584;2022-12-24T11:25:01;11.40;99.90
11963;DHT22;62678;52.130;5.584;2022-12-24T11:27:32;11.30;99.90
11963;DHT22;62678;52.130;5.584;2022-12-24T11:30:20;11.40;99.90
11963;DHT22;62678;52.130;5.584;2022-12-24T11:32:48;11.40;99.90
11963;DHT22;62678;52.130;5.584;2022-12-24T11:35:18;11.40;99.90
11963;DHT22;62678;52.130;5.584;2022-12-24T11:37:48;11.30;99.90
11963;DHT22;62678;52.130;5.584;2022-12-24T11:40:20;11.30;99.90
11963;DHT22;62678;52.130;5.584;2022-12-24T11:42:48;11.30;99.90
11963;DHT22;62678;52.130;5.584;2022-12-24T11:45:21;11.40;99.90
11963;DHT22;62678;52.130;5.584;2022-12-24T11:47:50;11.40;99.90
11963;DHT22;62678;52.130;5.584;2022-12-24T11:50:23;11.40;99.90
11963;DHT22;62678;52.130;5.584;2022-12-24T11:52:57;11.30;99.90
11963;DHT22;62678;52.130;5.584;2022-12-24T11:55:35;11.30;99.90
11963;DHT22;62678;52.130;5.584;2022-12-24T11:58:16;11.40;99.90
11963;DHT22;62678;52.130;5.584;2022-12-24T12:00:47;11.40;99.90
11963;DHT22;62678;52.130;5.584;2022-12-24T12:03:25;11.40;99.90
11963;DHT22;62678;52.130;5.584;2022-12-24T12:05:54;11.40;99.90
11963;DHT22;62678;52.130;5.584;2022-12-24T12:08:24;11.50;99.90
11963;DHT22;62678;52.130;5.584;2022-12-24T12:10:52;11.50;99.90
11963;DHT22;62678;52.130;5.584;2022-12-24T12:13:25;11.40;99.90
11963;DHT22;62678;52.130;5.584;2022-12-24T12:16:13;11.40;99.90
11963;DHT22;62678;52.130;5.584;2022-12-24T12:18:46;11.50;99.90
11963;DHT22;62678;52.130;5.584;2022-12-24T12:21:17;11.60;99.90
11963;DHT22;62678;52.130;5.584;2022-12-24T12:23:50;11.70;99.90
11963;DHT22;62678;52.130;5.584;2022-12-24T12:26:22;11.50;99.90
11963;DHT22;62678;52.130;5.584;2022-12-24T12:28:53;11.40;99.90
11963;DHT22;62678;52.130;5.584;2022-12-24T12:31:25;11.40;99.90
11963;DHT22;62678;52.130;5.584;2022-12-24T12:33:56;11.30;99.90
11963;DHT22;62678;52.130;5.584;2022-12-24T12:36:31;11.40;99.90
11963;DHT22;62678;52.130;5.584;2022-12-24T12:39:01;11.30;99.90
11963;DHT22;62678;52.130;5.584;2022-12-24T12:41:48;11.40;99.90
11963;DHT22;62678;52.130;5.584;2022-12-24T12:44:44;11.40;99.90
11963;DHT22;62678;52.130;5.584;2022-12-24T12:47:34;11.40;99.90
11963;DHT22;62678;52.130;5.584;2022-12-24T12:50:09;11.50;99.90
11963;DHT22;62678;52.130;5.584;2022-12-24T12:52:53;11.60;99.90
11963;DHT22;62678;52.130;5.584;2022-12-24T12:55:32;11.60;99.90
11963;DHT22;62678;52.130;5.584;2022-12-24T12:58:04;11.60;99.90
11963;DHT22;62678;52.130;5.584;2022-12-24T13:00:38;11.40;99.90
11963;DHT22;62678;52.130;5.584;2022-12-24T13:03:30;11.50;99.90
11963;DHT22;62678;52.130;5.584;2022-12-24T13:06:27;11.60;99.90
11963;DHT22;62678;52.130;5.584;2022-12-24T13:12:23;11.60;99.90
11963;DHT22;62678;52.130;5.584;2022-12-24T13:15:11;11.60;99.90
11963;DHT22;62678;52.130;5.584;2022-12-24T13:18:08;11.70;99.90
11963;DHT22;62678;52.130;5.584;2022-12-24T13:20:40;11.60;99.90
11963;DHT22;62678;52.130;5.584;2022-12-24T13:23:12;11.60;99.90
11963;DHT22;62678;52.130;5.584;2022-12-24T13:25:42;11.60;99.90
11963;DHT22;62678;52.130;5.584;2022-12-24T13:28:31;11.70;99.90
11963;DHT22;62678;52.130;5.584;2022-12-24T13:31:22;11.90;99.90
11963;DHT22;62678;52.130;5.584;2022-12-24T13:33:50;11.90;99.90
11963;DHT22;62678;52.130;5.584;2022-12-24T13:36:18;11.90;99.90
11963;DHT22;62678;52.130;5.584;2022-12-24T13:38:46;11.70;99.90
11963;DHT22;62678;52.130;5.584;2022-12-24T13:41:48;11.70;99.90
11963;DHT22;62678;52.130;5.584;2022-12-24T13:44:19;11.60;99.90
11963;DHT22;62678;52.130;5.584;2022-12-24T13:46:49;11.60;99.90
11963;DHT22;62678;52.130;5.584;2022-12-24T13:49:19;11.70;99.90
11963;DHT22;62678;52.130;5.584;2022-12-24T13:51:47;11.80;99.90
11963;DHT22;62678;52.130;5.584;2022-12-24T13:54:20;11.70;99.90
11963;DHT22;62678;52.130;5.584;2022-12-24T13:56:50;11.80;99.90
11963;DHT22;62678;52.130;5.584;2022-12-24T13:59:26;11.70;99.90
11963;DHT22;62678;52.130;5.584;2022-12-24T14:01:59;11.80;99.90
11963;DHT22;62678;52.130;5.584;2022-12-24T14:04:30;11.70;99.90
11963;DHT22;62678;52.130;5.584;2022-12-24T14:07:00;11.80;99.90
11963;DHT22;62678;52.130;5.584;2022-12-24T14:09:29;11.70;99.90
11963;DHT22;62678;52.130;5.584;2022-12-24T14:12:44;11.90;99.90
11963;DHT22;62678;52.130;5.584;2022-12-24T14:18:23;11.80;99.90
11963;DHT22;62678;52.130;5.584;2022-12-24T14:20:53;11.80;99.90
11963;DHT22;62678;52.130;5.584;2022-12-24T14:23:32;11.70;99.90
11963;DHT22;62678;52.130;5.584;2022-12-24T14:26:01;11.60;99.90
11963;DHT22;62678;52.130;5.584;2022-12-24T14:28:33;11.60;99.90
11963;DHT22;62678;52.130;5.584;2022-12-24T14:31:04;11.60;99.90
11963;DHT22;62678;52.130;5.584;2022-12-24T14:33:33;11.50;99.90
11963;DHT22;62678;52.130;5.584;2022-12-24T14:36:01;11.50;99.90
11963;DHT22;62678;52.130;5.584;2022-12-24T14:38:29;11.50;99.90
11963;DHT22;62678;52.130;5.584;2022-12-24T14:41:05;11.40;99.90
11963;DHT22;62678;52.130;5.584;2022-12-24T14:43:53;11.30;99.90
11963;DHT22;62678;52.130;5.584;2022-12-24T14:46:25;11.20;99.90
11963;DHT22;62678;52.130;5.584;2022-12-24T14:48:59;11.20;99.90
11963;DHT22;62678;52.130;5.584;2022-12-24T14:51:35;11.30;99.90
11963;DHT22;62678;52.130;5.584;2022-12-24T14:54:27;11.30;99.90
11963;DHT22;62678;52.130;5.584;2022-12-24T14:57:21;11.30;99.90
11963;DHT22;62678;52.130;5.584;2022-12-24T14:59:51;11.30;99.90
11963;DHT22;62678;52.130;5.584;2022-12-24T15:02:41;11.20;99.90
11963;DHT22;62678;52.130;5.584;2022-12-24T15:05:13;11.20;99.90
11963;DHT22;62678;52.130;5.584;2022-12-24T15:07:45;11.20;99.90
11963;DHT22;62678;52.130;5.584;2022-12-24T15:10:28;11.00;99.90
11963;DHT22;62678;52.130;5.584;2022-12-24T15:12:57;11.00;99.90
11963;DHT22;62678;52.130;5.584;2022-12-24T15:15:27;10.90;99.90
11963;DHT22;62678;52.130;5.584;2022-12-24T15:17:55;10.90;99.90
11963;DHT22;62678;52.130;5.584;2022-12-24T15:20:26;10.80;99.90
11963;DHT22;62678;52.130;5.584;2022-12-24T15:22:56;10.80;99.90
11963;DHT22;62678;52.130;5.584;2022-12-24T15:25:25;10.80;99.90
11963;DHT22;62678;52.130;5.584;2022-12-24T15:27:53;10.70;99.90
11963;DHT22;62678;52.130;5.584;2022-12-24T15:30:22;10.70;99.90
11963;DHT22;62678;52.130;5.584;2022-12-24T15:32:50;10.60;99.90
11963;DHT22;62678;52.130;5.584;2022-12-24T15:35:49;10.60;99.90
11963;DHT22;62678;52.130;5.584;2022-12-24T15:38:30;10.50;99.90
11963;DHT22;62678;52.130;5.584;2022-12-24T15:40:59;10.40;99.90
11963;DHT22;62678;52.130;5.584;2022-12-24T15:43:29;10.40;99.90
11963;DHT22;62678;52.130;5.584;2022-12-24T15:45:57;10.30;99.90
11963;DHT22;62678;52.130;5.584;2022-12-24T15:48:27;10.30;99.90
11963;DHT22;62678;52.130;5.584;2022-12-24T15:50:58;10.20;99.90
11963;DHT22;62678;52.130;5.584;2022-12-24T15:53:29;10.20;99.90
11963;DHT22;62678;52.130;5.584;2022-12-24T15:56:08;10.10;99.90
11963;DHT22;62678;52.130;5.584;2022-12-24T15:58:38;10.10;99.90
11963;DHT22;62678;52.130;5.584;2022-12-24T16:01:25;10.10;99.90
11963;DHT22;62678;52.130;5.584;2022-12-24T16:03:58;10.10;99.90
11963;DHT22;62678;52.130;5.584;2022-12-24T16:06:37;10.10;99.90
11963;DHT22;62678;52.130;5.584;2022-12-24T16:09:29;10.10;99.90